sensor_id;sensor_type;location;lat;lon;timestamp;temperature;humidity
23311;DHT22;11828;51.508;18.118;2023-08-30T00:00:58;33.00;38.80
23311;DHT22;11828;51.508;18.118;2023-08-30T00:03:33;33.10;38.90
23311;DHT22;11828;51.508;18.118;2023-08-30T00:06:04;33.10;38.90
23311;DHT22;11828;51.508;18.118;2023-08-30T00:08:31;33.10;38.80
23311;DHT22;11828;51.508;18.118;2023-08-30T00:10:58;33.10;38.80
23311;DHT22;11828;51.508;18.118;2023-08-30T00:13:25;33.20;38.70
23311;DHT22;11828;51.508;18.118;2023-08-30T00:15:52;33.20;38.70
23311;DHT22;11828;51.508;18.118;2023-08-30T00:18:18;33.20;38.70
23311;DHT22;11828;51.508;18.118;2023-08-30T00:20:47;33.20;38.70
23311;DHT22;11828;51.508;18.118;2023-08-30T00:23:14;33.20;38.60
23311;DHT22;11828;51.508;18.118;2023-08-30T00:25:40;33.10;38.60
23311;DHT22;11828;51.508;18.118;2023-08-30T00:28:06;33.20;38.70
23311;DHT22;11828;51.508;18.118;2023-08-30T00:30:32;33.20;38.60
23311;DHT22;11828;51.508;18.118;2023-08-30T00:32:58;33.20;38.50
23311;DHT22;11828;51.508;18.118;2023-08-30T00:35:25;33.30;38.50
23311;DHT22;11828;51.508;18.118;2023-08-30T00:37:51;33.30;38.50
23311;DHT22;11828;51.508;18.118;2023-08-30T00:40:17;33.40;38.40
23311;DHT22;11828;51.508;18.118;2023-08-30T00:42:43;33.40;39.00
23311;DHT22;11828;51.508;18.118;2023-08-30T00:45:10;33.40;38.40
23311;DHT22;11828;51.508;18.118;2023-08-30T00:47:36;33.40;38.30
23311;DHT22;11828;51.508;18.118;2023-08-30T00:50:02;33.40;38.40
23311;DHT22;11828;51.508;18.118;2023-08-30T00:52:29;33.40;38.40
23311;DHT22;11828;51.508;18.118;2023-08-30T00:54:55;33.40;38.20
23311;DHT22;11828;51.508;18.118;2023-08-30T00:57:21;33.40;38.30
23311;DHT22;11828;51.508;18.118;2023-08-30T00:59:49;33.40;38.30
23311;DHT22;11828;51.508;18.118;2023-08-30T01:02:17;33.40;38.30
23311;DHT22;11828;51.508;18.118;2023-08-30T01:04:44;33.40;38.40
23311;DHT22;11828;51.508;18.118;2023-08-30T01:07:10;33.40;38.40
23311;DHT22;11828;51.508;18.118;2023-08-30T01:09:37;33.40;38.40
23311;DHT22;11828;51.508;18.118;2023-08-30T01:12:25;33.40;38.40
23311;DHT22;11828;51.508;18.118;2023-08-30T01:15:02;33.40;39.10
23311;DHT22;11828;51.508;18.118;2023-08-30T01:17:52;33.30;38.30
23311;DHT22;11828;51.508;18.118;2023-08-30T01:20:22;33.30;38.30
23311;DHT22;11828;51.508;18.118;2023-08-30T01:28:16;33.30;38.40
23311;DHT22;11828;51.508;18.118;2023-08-30T01:30:45;33.30;38.40
23311;DHT22;11828;51.508;18.118;2023-08-30T01:33:14;33.20;38.40
23311;DHT22;11828;51.508;18.118;2023-08-30T01:35:45;33.30;38.40
23311;DHT22;11828;51.508;18.118;2023-08-30T01:38:11;33.20;38.30
23311;DHT22;11828;51.508;18.118;2023-08-30T01:40:41;33.30;38.40
23311;DHT22;11828;51.508;18.118;2023-08-30T01:43:09;33.20;38.40
23311;DHT22;11828;51.508;18.118;2023-08-30T01:45:39;33.30;38.40
23311;DHT22;11828;51.508;18.118;2023-08-30T01:48:10;33.30;38.40
23311;DHT22;11828;51.508;18.118;2023-08-30T01:50:41;33.30;38.30
23311;DHT22;11828;51.508;18.118;2023-08-30T01:53:10;33.30;38.30
23311;DHT22;11828;51.508;18.118;2023-08-30T01:55:38;33.30;38.30
23311;DHT22;11828;51.508;18.118;2023-08-30T01:58:05;33.30;38.20
23311;DHT22;11828;51.508;18.118;2023-08-30T02:00:32;33.30;38.10
23311;DHT22;11828;51.508;18.118;2023-08-30T02:02:58;33.30;38.10
23311;DHT22;11828;51.508;18.118;2023-08-30T02:05:25;33.20;38.20
23311;DHT22;11828;51.508;18.118;2023-08-30T02:10:25;33.30;38.30
23311;DHT22;11828;51.508;18.118;2023-08-30T02:12:54;33.20;38.30
23311;DHT22;11828;51.508;18.118;2023-08-30T02:15:24;33.20;38.10
23311;DHT22;11828;51.508;18.118;2023-08-30T02:17:51;33.30;38.10
23311;DHT22;11828;51.508;18.118;2023-08-30T02:20:18;33.20;38.20
23311;DHT22;11828;51.508;18.118;2023-08-30T02:22:44;33.10;38.20
23311;DHT22;11828;51.508;18.118;2023-08-30T02:25:10;33.00;38.40
23311;DHT22;11828;51.508;18.118;2023-08-30T02:27:36;33.00;38.50
23311;DHT22;11828;51.508;18.118;2023-08-30T02:30:03;33.00;38.80
23311;DHT22;11828;51.508;18.118;2023-08-30T02:32:30;33.00;38.70
23311;DHT22;11828;51.508;18.118;2023-08-30T02:34:56;33.00;38.60
23311;DHT22;11828;51.508;18.118;2023-08-30T02:37:23;33.10;38.60
23311;DHT22;11828;51.508;18.118;2023-08-30T02:39:50;33.00;38.60
23311;DHT22;11828;51.508;18.118;2023-08-30T02:42:16;33.00;38.50
23311;DHT22;11828;51.508;18.118;2023-08-30T02:44:42;33.00;38.60
23311;DHT22;11828;51.508;18.118;2023-08-30T02:47:08;33.00;38.50
23311;DHT22;11828;51.508;18.118;2023-08-30T02:49:35;33.10;38.60
23311;DHT22;11828;51.508;18.118;2023-08-30T02:52:01;33.00;38.50
23311;DHT22;11828;51.508;18.118;2023-08-30T02:54:27;32.90;38.60
23311;DHT22;11828;51.508;18.118;2023-08-30T02:56:53;32.80;38.60
23311;DHT22;11828;51.508;18.118;2023-08-30T02:59:20;32.80;38.80
23311;DHT22;11828;51.508;18.118;2023-08-30T03:01:46;32.80;38.80
23311;DHT22;11828;51.508;18.118;2023-08-30T03:04:12;32.80;38.80
23311;DHT22;11828;51.508;18.118;2023-08-30T03:06:38;32.80;38.90
23311;DHT22;11828;51.508;18.118;2023-08-30T03:09:04;32.70;39.00
23311;DHT22;11828;51.508;18.118;2023-08-30T03:11:32;32.60;39.00
23311;DHT22;11828;51.508;18.118;2023-08-30T03:13:58;32.60;39.10
23311;DHT22;11828;51.508;18.118;2023-08-30T03:16:24;32.60;39.20
23311;DHT22;11828;51.508;18.118;2023-08-30T03:18:51;32.60;39.20
23311;DHT22;11828;51.508;18.118;2023-08-30T03:21:17;32.60;39.30
23311;DHT22;11828;51.508;18.118;2023-08-30T03:23:44;32.60;39.20
23311;DHT22;11828;51.508;18.118;2023-08-30T03:26:14;32.60;39.20
23311;DHT22;11828;51.508;18.118;2023-08-30T03:28:42;32.60;39.20
23311;DHT22;11828;51.508;18.118;2023-08-30T03:31:13;32.70;39.20
23311;DHT22;11828;51.508;18.118;2023-08-30T03:33:43;32.70;39.00
23311;DHT22;11828;51.508;18.118;2023-08-30T03:36:11;32.80;39.00
23311;DHT22;11828;51.508;18.118;2023-08-30T03:38:39;32.80;38.90
23311;DHT22;11828;51.508;18.118;2023-08-30T03:41:06;32.80;38.90
23311;DHT22;11828;51.508;18.118;2023-08-30T03:43:33;32.80;38.80
23311;DHT22;11828;51.508;18.118;2023-08-30T03:46:00;32.90;38.90
23311;DHT22;11828;51.508;18.118;2023-08-30T03:48:27;32.90;38.80
23311;DHT22;11828;51.508;18.118;2023-08-30T03:50:54;32.90;38.80
23311;DHT22;11828;51.508;18.118;2023-08-30T03:53:21;32.90;38.80
23311;DHT22;11828;51.508;18.118;2023-08-30T03:55:48;32.90;38.90
23311;DHT22;11828;51.508;18.118;2023-08-30T03:58:15;32.90;38.90
23311;DHT22;11828;51.508;18.118;2023-08-30T04:00:41;32.80;38.80
23311;DHT22;11828;51.508;18.118;2023-08-30T04:03:09;32.90;39.00
23311;DHT22;11828;51.508;18.118;2023-08-30T04:05:36;32.90;39.00
23311;DHT22;11828;51.508;18.118;2023-08-30T04:08:03;33.00;39.00
23311;DHT22;11828;51.508;18.118;2023-08-30T04:10:39;33.00;38.90
23311;DHT22;11828;51.508;18.118;2023-08-30T04:13:08;33.00;38.90
23311;DHT22;11828;51.508;18.118;2023-08-30T04:15:38;33.00;38.80
23311;DHT22;11828;51.508;18.118;2023-08-30T04:18:05;33.00;38.90
23311;DHT22;11828;51.508;18.118;2023-08-30T04:20:32;33.10;39.70
23311;DHT22;11828;51.508;18.118;2023-08-30T04:23:00;33.00;38.90
23311;DHT22;11828;51.508;18.118;2023-08-30T04:25:30;33.00;38.90
23311;DHT22;11828;51.508;18.118;2023-08-30T04:27:57;33.00;38.80
23311;DHT22;11828;51.508;18.118;2023-08-30T04:30:23;33.00;38.90
23311;DHT22;11828;51.508;18.118;2023-08-30T04:32:50;32.90;39.00
23311;DHT22;11828;51.508;18.118;2023-08-30T04:35:16;33.00;39.10
23311;DHT22;11828;51.508;18.118;2023-08-30T04:37:42;33.00;39.10
23311;DHT22;11828;51.508;18.118;2023-08-30T04:40:09;33.00;39.10
23311;DHT22;11828;51.508;18.118;2023-08-30T04:42:36;33.00;39.00
23311;DHT22;11828;51.508;18.118;2023-08-30T04:45:03;33.10;39.60
23311;DHT22;11828;51.508;18.118;2023-08-30T04:47:30;33.10;38.90
23311;DHT22;11828;51.508;18.118;2023-08-30T04:49:57;33.00;38.80
23311;DHT22;11828;51.508;18.118;2023-08-30T04:52:23;33.00;38.90
23311;DHT22;11828;51.508;18.118;2023-08-30T04:54:50;33.00;38.90
23311;DHT22;11828;51.508;18.118;2023-08-30T04:57:16;33.00;38.80
23311;DHT22;11828;51.508;18.118;2023-08-30T04:59:46;33.00;38.80
23311;DHT22;11828;51.508;18.118;2023-08-30T05:02:12;32.90;38.80
23311;DHT22;11828;51.508;18.118;2023-08-30T05:04:38;33.00;38.90
23311;DHT22;11828;51.508;18.118;2023-08-30T05:07:05;33.10;39.00
23311;DHT22;11828;51.508;18.118;2023-08-30T05:09:31;33.10;38.80
23311;DHT22;11828;51.508;18.118;2023-08-30T05:11:58;33.10;38.70
23311;DHT22;11828;51.508;18.118;2023-08-30T05:14:24;33.10;38.60
23311;DHT22;11828;51.508;18.118;2023-08-30T05:16:50;33.10;38.80
23311;DHT22;11828;51.508;18.118;2023-08-30T05:19:16;33.10;38.70
23311;DHT22;11828;51.508;18.118;2023-08-30T05:21:43;33.20;38.70
23311;DHT22;11828;51.508;18.118;2023-08-30T05:24:09;33.20;38.60
23311;DHT22;11828;51.508;18.118;2023-08-30T05:26:36;33.20;38.50
23311;DHT22;11828;51.508;18.118;2023-08-30T05:29:03;33.20;38.50
23311;DHT22;11828;51.508;18.118;2023-08-30T05:31:30;33.10;38.50
23311;DHT22;11828;51.508;18.118;2023-08-30T05:33:56;33.10;38.50
23311;DHT22;11828;51.508;18.118;2023-08-30T05:36:22;32.90;38.50
23311;DHT22;11828;51.508;18.118;2023-08-30T05:38:48;32.80;38.70
23311;DHT22;11828;51.508;18.118;2023-08-30T05:41:14;32.80;38.80
23311;DHT22;11828;51.508;18.118;2023-08-30T05:43:40;32.80;38.90
23311;DHT22;11828;51.508;18.118;2023-08-30T05:46:06;32.80;38.80
23311;DHT22;11828;51.508;18.118;2023-08-30T05:48:38;32.80;38.80
23311;DHT22;11828;51.508;18.118;2023-08-30T05:51:04;32.80;38.90
23311;DHT22;11828;51.508;18.118;2023-08-30T05:53:30;32.80;39.00
23311;DHT22;11828;51.508;18.118;2023-08-30T05:55:56;32.80;38.90
23311;DHT22;11828;51.508;18.118;2023-08-30T05:58:22;32.70;38.80
23311;DHT22;11828;51.508;18.118;2023-08-30T06:00:48;32.70;38.90
23311;DHT22;11828;51.508;18.118;2023-08-30T06:03:15;32.70;38.60
23311;DHT22;11828;51.508;18.118;2023-08-30T06:05:42;32.80;38.70
23311;DHT22;11828;51.508;18.118;2023-08-30T06:08:08;32.80;38.60
23311;DHT22;11828;51.508;18.118;2023-08-30T06:10:36;32.90;38.50
23311;DHT22;11828;51.508;18.118;2023-08-30T06:13:02;32.90;38.30
23311;DHT22;11828;51.508;18.118;2023-08-30T06:15:29;32.90;38.20
23311;DHT22;11828;51.508;18.118;2023-08-30T06:17:54;32.90;38.30
23311;DHT22;11828;51.508;18.118;2023-08-30T06:20:21;32.90;38.30
23311;DHT22;11828;51.508;18.118;2023-08-30T06:22:47;33.10;38.30
23311;DHT22;11828;51.508;18.118;2023-08-30T06:25:13;33.10;38.10
23311;DHT22;11828;51.508;18.118;2023-08-30T06:27:42;33.10;37.90
23311;DHT22;11828;51.508;18.118;2023-08-30T06:30:13;33.10;37.90
23311;DHT22;11828;51.508;18.118;2023-08-30T06:32:39;33.00;38.00
23311;DHT22;11828;51.508;18.118;2023-08-30T06:35:05;33.10;38.10
23311;DHT22;11828;51.508;18.118;2023-08-30T06:37:31;33.00;38.00
23311;DHT22;11828;51.508;18.118;2023-08-30T06:39:58;33.00;38.20
23311;DHT22;11828;51.508;18.118;2023-08-30T06:42:23;33.00;38.20
23311;DHT22;11828;51.508;18.118;2023-08-30T06:44:51;33.10;38.20
23311;DHT22;11828;51.508;18.118;2023-08-30T06:47:17;33.10;38.00
23311;DHT22;11828;51.508;18.118;2023-08-30T06:49:43;33.10;38.00
23311;DHT22;11828;51.508;18.118;2023-08-30T06:52:09;33.10;37.90
23311;DHT22;11828;51.508;18.118;2023-08-30T06:54:35;33.10;37.80
23311;DHT22;11828;51.508;18.118;2023-08-30T06:57:02;33.20;38.70
23311;DHT22;11828;51.508;18.118;2023-08-30T06:59:29;33.10;37.80
23311;DHT22;11828;51.508;18.118;2023-08-30T07:01:55;33.20;37.90
23311;DHT22;11828;51.508;18.118;2023-08-30T07:04:21;33.20;37.90
23311;DHT22;11828;51.508;18.118;2023-08-30T07:06:47;33.20;37.80
23311;DHT22;11828;51.508;18.118;2023-08-30T07:09:14;33.20;37.60
23311;DHT22;11828;51.508;18.118;2023-08-30T07:11:42;33.20;37.60
23311;DHT22;11828;51.508;18.118;2023-08-30T07:14:13;33.10;37.80
23311;DHT22;11828;51.508;18.118;2023-08-30T07:16:40;33.10;37.80
23311;DHT22;11828;51.508;18.118;2023-08-30T07:19:07;33.10;37.90
23311;DHT22;11828;51.508;18.118;2023-08-30T07:21:33;33.00;37.80
23311;DHT22;11828;51.508;18.118;2023-08-30T07:24:02;33.00;38.00
23311;DHT22;11828;51.508;18.118;2023-08-30T07:26:28;32.90;37.90
23311;DHT22;11828;51.508;18.118;2023-08-30T07:28:54;32.90;38.00
23311;DHT22;11828;51.508;18.118;2023-08-30T07:31:20;32.90;38.00
23311;DHT22;11828;51.508;18.118;2023-08-30T07:33:47;33.00;38.10
23311;DHT22;11828;51.508;18.118;2023-08-30T07:36:13;33.10;38.10
23311;DHT22;11828;51.508;18.118;2023-08-30T07:38:39;33.20;37.90
23311;DHT22;11828;51.508;18.118;2023-08-30T07:41:05;33.40;37.80
23311;DHT22;11828;51.508;18.118;2023-08-30T07:43:32;33.50;37.40
23311;DHT22;11828;51.508;18.118;2023-08-30T07:45:58;33.50;37.20
23311;DHT22;11828;51.508;18.118;2023-08-30T07:48:27;33.50;37.10
23311;DHT22;11828;51.508;18.118;2023-08-30T07:50:53;33.50;37.30
23311;DHT22;11828;51.508;18.118;2023-08-30T07:53:19;33.50;37.40
23311;DHT22;11828;51.508;18.118;2023-08-30T07:55:49;33.50;37.50
23311;DHT22;11828;51.508;18.118;2023-08-30T07:58:18;33.50;37.30
23311;DHT22;11828;51.508;18.118;2023-08-30T08:00:44;33.60;37.30
23311;DHT22;11828;51.508;18.118;2023-08-30T08:03:11;33.50;36.90
23311;DHT22;11828;51.508;18.118;2023-08-30T08:05:37;33.40;37.00
23311;DHT22;11828;51.508;18.118;2023-08-30T08:08:03;33.40;37.10
23311;DHT22;11828;51.508;18.118;2023-08-30T08:10:33;33.40;37.20
23311;DHT22;11828;51.508;18.118;2023-08-30T08:13:00;33.40;37.20
23311;DHT22;11828;51.508;18.118;2023-08-30T08:15:28;33.40;37.20
23311;DHT22;11828;51.508;18.118;2023-08-30T08:17:57;33.50;37.30
23311;DHT22;11828;51.508;18.118;2023-08-30T08:20:23;33.60;37.30
23311;DHT22;11828;51.508;18.118;2023-08-30T08:22:49;33.60;37.30
23311;DHT22;11828;51.508;18.118;2023-08-30T08:25:15;33.60;36.90
23311;DHT22;11828;51.508;18.118;2023-08-30T08:27:42;33.60;36.90
23311;DHT22;11828;51.508;18.118;2023-08-30T08:30:08;33.60;37.00
23311;DHT22;11828;51.508;18.118;2023-08-30T08:32:36;33.50;37.00
23311;DHT22;11828;51.508;18.118;2023-08-30T08:35:02;33.50;37.10
23311;DHT22;11828;51.508;18.118;2023-08-30T08:37:28;33.60;37.10
23311;DHT22;11828;51.508;18.118;2023-08-30T08:39:54;33.60;37.20
23311;DHT22;11828;51.508;18.118;2023-08-30T08:42:21;33.60;37.10
23311;DHT22;11828;51.508;18.118;2023-08-30T08:44:50;33.70;37.10
23311;DHT22;11828;51.508;18.118;2023-08-30T08:47:19;33.60;37.00
23311;DHT22;11828;51.508;18.118;2023-08-30T08:49:49;33.50;36.90
23311;DHT22;11828;51.508;18.118;2023-08-30T08:52:17;33.40;37.00
23311;DHT22;11828;51.508;18.118;2023-08-30T08:54:43;33.40;37.20
23311;DHT22;11828;51.508;18.118;2023-08-30T08:57:10;33.40;37.20
23311;DHT22;11828;51.508;18.118;2023-08-30T08:59:36;33.40;37.30
23311;DHT22;11828;51.508;18.118;2023-08-30T09:02:03;33.40;37.30
23311;DHT22;11828;51.508;18.118;2023-08-30T09:04:31;33.30;37.20
23311;DHT22;11828;51.508;18.118;2023-08-30T09:06:59;33.40;37.40
23311;DHT22;11828;51.508;18.118;2023-08-30T09:09:26;33.40;37.20
23311;DHT22;11828;51.508;18.118;2023-08-30T09:11:52;33.50;37.10
23311;DHT22;11828;51.508;18.118;2023-08-30T09:14:19;33.50;37.10
23311;DHT22;11828;51.508;18.118;2023-08-30T09:16:59;33.50;37.10
23311;DHT22;11828;51.508;18.118;2023-08-30T09:19:29;33.60;36.70
23311;DHT22;11828;51.508;18.118;2023-08-30T09:21:58;33.70;36.80
23311;DHT22;11828;51.508;18.118;2023-08-30T09:24:25;33.70;36.60
23311;DHT22;11828;51.508;18.118;2023-08-30T09:26:54;33.70;36.50
23311;DHT22;11828;51.508;18.118;2023-08-30T09:29:21;33.70;36.70
23311;DHT22;11828;51.508;18.118;2023-08-30T09:31:52;33.80;36.70
23311;DHT22;11828;51.508;18.118;2023-08-30T09:34:25;34.00;36.50
23311;DHT22;11828;51.508;18.118;2023-08-30T09:36:52;34.00;36.50
23311;DHT22;11828;51.508;18.118;2023-08-30T09:39:18;34.10;36.20
23311;DHT22;11828;51.508;18.118;2023-08-30T09:41:47;34.20;36.00
23311;DHT22;11828;51.508;18.118;2023-08-30T09:44:15;34.40;35.90
23311;DHT22;11828;51.508;18.118;2023-08-30T09:46:46;34.50;35.70
23311;DHT22;11828;51.508;18.118;2023-08-30T09:49:12;34.60;35.30
23311;DHT22;11828;51.508;18.118;2023-08-30T09:51:40;34.60;35.20
23311;DHT22;11828;51.508;18.118;2023-08-30T09:54:14;34.60;35.10
23311;DHT22;11828;51.508;18.118;2023-08-30T09:56:44;34.60;35.40
23311;DHT22;11828;51.508;18.118;2023-08-30T09:59:12;34.50;35.40
23311;DHT22;11828;51.508;18.118;2023-08-30T10:01:41;34.50;35.50
23311;DHT22;11828;51.508;18.118;2023-08-30T10:04:08;34.40;35.40
23311;DHT22;11828;51.508;18.118;2023-08-30T10:06:39;34.20;35.90
23311;DHT22;11828;51.508;18.118;2023-08-30T10:09:06;34.00;35.50
23311;DHT22;11828;51.508;18.118;2023-08-30T10:11:37;33.90;35.40
23311;DHT22;11828;51.508;18.118;2023-08-30T10:14:05;33.80;35.80
23311;DHT22;11828;51.508;18.118;2023-08-30T10:16:42;33.70;35.80
23311;DHT22;11828;51.508;18.118;2023-08-30T10:19:17;33.70;35.80
23311;DHT22;11828;51.508;18.118;2023-08-30T10:21:48;33.70;36.00
23311;DHT22;11828;51.508;18.118;2023-08-30T10:24:19;33.70;35.90
23311;DHT22;11828;51.508;18.118;2023-08-30T10:26:47;33.70;35.90
23311;DHT22;11828;51.508;18.118;2023-08-30T10:29:17;33.60;35.80
23311;DHT22;11828;51.508;18.118;2023-08-30T10:31:45;33.60;36.10
23311;DHT22;11828;51.508;18.118;2023-08-30T10:34:14;33.50;36.30
23311;DHT22;11828;51.508;18.118;2023-08-30T10:36:43;33.40;36.80
23311;DHT22;11828;51.508;18.118;2023-08-30T10:39:13;33.40;36.80
23311;DHT22;11828;51.508;18.118;2023-08-30T10:41:57;33.20;36.90
23311;DHT22;11828;51.508;18.118;2023-08-30T10:44:23;33.20;37.60
23311;DHT22;11828;51.508;18.118;2023-08-30T10:46:54;33.30;37.70
23311;DHT22;11828;51.508;18.118;2023-08-30T10:49:21;33.20;37.20
23311;DHT22;11828;51.508;18.118;2023-08-30T10:51:58;33.20;37.30
23311;DHT22;11828;51.508;18.118;2023-08-30T10:54:37;33.20;38.40
23311;DHT22;11828;51.508;18.118;2023-08-30T10:57:05;33.20;37.80
23311;DHT22;11828;51.508;18.118;2023-08-30T10:59:31;33.20;37.80
23311;DHT22;11828;51.508;18.118;2023-08-30T11:02:00;33.20;37.90
23311;DHT22;11828;51.508;18.118;2023-08-30T11:04:27;33.20;37.80
23311;DHT22;11828;51.508;18.118;2023-08-30T11:06:55;33.30;37.80
23311;DHT22;11828;51.508;18.118;2023-08-30T11:09:24;33.40;37.80
23311;DHT22;11828;51.508;18.118;2023-08-30T11:11:51;33.40;37.40
23311;DHT22;11828;51.508;18.118;2023-08-30T11:14:18;33.40;37.20
23311;DHT22;11828;51.508;18.118;2023-08-30T11:16:45;33.50;37.50
23311;DHT22;11828;51.508;18.118;2023-08-30T11:19:11;33.40;37.40
23311;DHT22;11828;51.508;18.118;2023-08-30T11:21:39;33.50;37.60
23311;DHT22;11828;51.508;18.118;2023-08-30T11:24:07;33.50;37.90
23311;DHT22;11828;51.508;18.118;2023-08-30T11:26:34;33.50;37.70
23311;DHT22;11828;51.508;18.118;2023-08-30T11:29:09;33.50;37.40
23311;DHT22;11828;51.508;18.118;2023-08-30T11:31:36;33.50;37.60
23311;DHT22;11828;51.508;18.118;2023-08-30T11:34:02;33.50;37.60
23311;DHT22;11828;51.508;18.118;2023-08-30T11:36:30;33.40;37.40
23311;DHT22;11828;51.508;18.118;2023-08-30T11:38:57;33.40;37.60
23311;DHT22;11828;51.508;18.118;2023-08-30T11:41:25;33.30;37.60
23311;DHT22;11828;51.508;18.118;2023-08-30T11:43:52;33.20;37.70
23311;DHT22;11828;51.508;18.118;2023-08-30T11:46:19;33.10;37.80
23311;DHT22;11828;51.508;18.118;2023-08-30T11:48:47;33.00;37.90
23311;DHT22;11828;51.508;18.118;2023-08-30T11:51:16;33.10;38.40
23311;DHT22;11828;51.508;18.118;2023-08-30T11:53:45;33.20;38.40
23311;DHT22;11828;51.508;18.118;2023-08-30T11:56:11;33.30;38.40
23311;DHT22;11828;51.508;18.118;2023-08-30T11:58:38;33.40;38.20
23311;DHT22;11828;51.508;18.118;2023-08-30T12:01:04;33.40;38.50
23311;DHT22;11828;51.508;18.118;2023-08-30T12:03:31;33.30;37.80
23311;DHT22;11828;51.508;18.118;2023-08-30T12:05:58;33.30;38.00
23311;DHT22;11828;51.508;18.118;2023-08-30T12:08:27;33.30;38.20
23311;DHT22;11828;51.508;18.118;2023-08-30T12:10:57;33.20;38.00
23311;DHT22;11828;51.508;18.118;2023-08-30T12:13:33;33.30;38.30
23311;DHT22;11828;51.508;18.118;2023-08-30T12:16:01;33.40;38.10
23311;DHT22;11828;51.508;18.118;2023-08-30T12:18:31;33.40;38.20
23311;DHT22;11828;51.508;18.118;2023-08-30T12:21:01;33.50;38.50
23311;DHT22;11828;51.508;18.118;2023-08-30T12:23:30;33.70;38.70
23311;DHT22;11828;51.508;18.118;2023-08-30T12:26:07;33.90;38.00
23311;DHT22;11828;51.508;18.118;2023-08-30T12:28:39;34.10;37.80
23311;DHT22;11828;51.508;18.118;2023-08-30T12:31:06;34.30;37.90
23311;DHT22;11828;51.508;18.118;2023-08-30T12:33:36;34.40;38.10
23311;DHT22;11828;51.508;18.118;2023-08-30T12:36:03;34.60;37.00
23311;DHT22;11828;51.508;18.118;2023-08-30T12:38:29;34.60;36.80
23311;DHT22;11828;51.508;18.118;2023-08-30T12:40:56;34.80;36.60
23311;DHT22;11828;51.508;18.118;2023-08-30T12:43:23;34.80;36.40
23311;DHT22;11828;51.508;18.118;2023-08-30T12:45:50;34.80;36.70
23311;DHT22;11828;51.508;18.118;2023-08-30T12:48:17;34.90;36.60
23311;DHT22;11828;51.508;18.118;2023-08-30T12:50:46;34.90;36.10
23311;DHT22;11828;51.508;18.118;2023-08-30T12:53:13;34.90;35.80
23311;DHT22;11828;51.508;18.118;2023-08-30T12:55:42;34.90;35.60
23311;DHT22;11828;51.508;18.118;2023-08-30T12:58:08;34.90;35.60
23311;DHT22;11828;51.508;18.118;2023-08-30T13:00:35;34.90;35.60
23311;DHT22;11828;51.508;18.118;2023-08-30T13:03:02;34.80;35.40
23311;DHT22;11828;51.508;18.118;2023-08-30T13:05:29;34.70;35.60
23311;DHT22;11828;51.508;18.118;2023-08-30T13:07:59;34.60;35.40
23311;DHT22;11828;51.508;18.118;2023-08-30T13:10:26;34.60;35.60
23311;DHT22;11828;51.508;18.118;2023-08-30T13:12:52;34.60;35.70
23311;DHT22;11828;51.508;18.118;2023-08-30T13:15:18;34.60;35.40
23311;DHT22;11828;51.508;18.118;2023-08-30T13:17:44;34.60;35.50
23311;DHT22;11828;51.508;18.118;2023-08-30T13:20:11;34.60;35.80
23311;DHT22;11828;51.508;18.118;2023-08-30T13:22:37;34.50;35.20
23311;DHT22;11828;51.508;18.118;2023-08-30T13:25:03;34.40;35.10
23311;DHT22;11828;51.508;18.118;2023-08-30T13:27:30;34.40;35.50
23311;DHT22;11828;51.508;18.118;2023-08-30T13:29:56;34.40;35.40
23311;DHT22;11828;51.508;18.118;2023-08-30T13:32:23;34.30;35.30
23311;DHT22;11828;51.508;18.118;2023-08-30T13:34:50;34.30;35.70
23311;DHT22;11828;51.508;18.118;2023-08-30T13:37:16;34.30;35.70
23311;DHT22;11828;51.508;18.118;2023-08-30T13:39:43;34.30;35.60
23311;DHT22;11828;51.508;18.118;2023-08-30T13:42:10;34.20;35.40
23311;DHT22;11828;51.508;18.118;2023-08-30T13:44:36;34.20;35.60
23311;DHT22;11828;51.508;18.118;2023-08-30T13:47:04;34.10;35.70
23311;DHT22;11828;51.508;18.118;2023-08-30T13:49:30;34.10;35.80
23311;DHT22;11828;51.508;18.118;2023-08-30T13:51:57;34.10;35.90
23311;DHT22;11828;51.508;18.118;2023-08-30T13:54:24;34.10;35.60
23311;DHT22;11828;51.508;18.118;2023-08-30T13:56:51;34.00;36.20
23311;DHT22;11828;51.508;18.118;2023-08-30T13:59:17;34.10;35.90
23311;DHT22;11828;51.508;18.118;2023-08-30T14:01:43;34.10;35.90
23311;DHT22;11828;51.508;18.118;2023-08-30T14:04:10;34.20;36.00
23311;DHT22;11828;51.508;18.118;2023-08-30T14:06:36;34.20;35.60
23311;DHT22;11828;51.508;18.118;2023-08-30T14:09:02;34.40;35.80
23311;DHT22;11828;51.508;18.118;2023-08-30T14:11:30;34.40;35.40
23311;DHT22;11828;51.508;18.118;2023-08-30T14:13:56;34.50;35.30
23311;DHT22;11828;51.508;18.118;2023-08-30T14:16:22;34.60;35.30
23311;DHT22;11828;51.508;18.118;2023-08-30T14:18:52;34.60;35.10
23311;DHT22;11828;51.508;18.118;2023-08-30T14:21:21;34.60;35.00
23311;DHT22;11828;51.508;18.118;2023-08-30T14:23:47;34.70;35.20
23311;DHT22;11828;51.508;18.118;2023-08-30T14:26:13;34.70;35.20
23311;DHT22;11828;51.508;18.118;2023-08-30T14:28:40;34.60;35.10
23311;DHT22;11828;51.508;18.118;2023-08-30T14:31:09;34.60;35.10
23311;DHT22;11828;51.508;18.118;2023-08-30T14:33:36;34.60;35.20
23311;DHT22;11828;51.508;18.118;2023-08-30T14:36:07;34.50;35.00
23311;DHT22;11828;51.508;18.118;2023-08-30T14:38:34;34.40;35.10
23311;DHT22;11828;51.508;18.118;2023-08-30T14:41:02;34.40;35.20
23311;DHT22;11828;51.508;18.118;2023-08-30T14:43:29;34.40;35.20
23311;DHT22;11828;51.508;18.118;2023-08-30T14:46:02;34.30;35.20
23311;DHT22;11828;51.508;18.118;2023-08-30T14:48:31;34.10;35.20
23311;DHT22;11828;51.508;18.118;2023-08-30T14:50:59;34.00;35.30
23311;DHT22;11828;51.508;18.118;2023-08-30T14:53:26;34.00;35.60
23311;DHT22;11828;51.508;18.118;2023-08-30T14:55:52;34.00;35.60
23311;DHT22;11828;51.508;18.118;2023-08-30T14:58:19;33.90;35.80
23311;DHT22;11828;51.508;18.118;2023-08-30T15:00:47;33.90;35.60
23311;DHT22;11828;51.508;18.118;2023-08-30T15:03:14;33.70;35.80
23311;DHT22;11828;51.508;18.118;2023-08-30T15:05:41;33.70;35.90
23311;DHT22;11828;51.508;18.118;2023-08-30T15:08:07;33.50;35.90
23311;DHT22;11828;51.508;18.118;2023-08-30T15:10:33;33.40;36.00
23311;DHT22;11828;51.508;18.118;2023-08-30T15:12:59;33.40;36.30
23311;DHT22;11828;51.508;18.118;2023-08-30T15:15:26;33.40;36.40
23311;DHT22;11828;51.508;18.118;2023-08-30T15:17:52;33.30;36.80
23311;DHT22;11828;51.508;18.118;2023-08-30T15:20:18;33.30;36.30
23311;DHT22;11828;51.508;18.118;2023-08-30T15:22:44;33.30;36.30
23311;DHT22;11828;51.508;18.118;2023-08-30T15:25:10;33.40;36.30